Time;durP1;ratioP1;P1;durP2;ratioP2;P2;SDS_P1;SDS_P2;PMS_P1;PMS_P2;Temp;Humidity;BMP_temperature;BMP_pressure;BME280_temperature;BME280_humidity;BME280_pressure;Samples;Min_cycle;Max_cycle;Signal;HPM_P1;HPM_P2
2022/05/03 00:00:18;;;;;;;9.25;6.53;;;;;;;7.36;100.00;101411.53;5094684;28;20519;-46
2022/05/03 00:02:47;;;;;;;9.77;6.00;;;;;;;7.36;100.00;101412.38;5103090;28;20063;-48
2022/05/03 00:05:23;;;;;;;7.75;6.10;;;;;;;7.36;100.00;101411.53;5099674;28;20142;-51
2022/05/03 00:08:09;;;;;;;9.52;5.97;;;;;;;7.35;100.00;101420.41;5108022;28;20044;-46
2022/05/03 00:10:56;;;;;;;10.65;7.03;;;;;;;7.35;100.00;101415.13;5104166;28;20534;-48
2022/05/03 00:13:28;;;;;;;11.40;7.15;;;;;;;7.34;100.00;101406.41;5104779;28;20070;-47
2022/05/03 00:15:55;;;;;;;8.55;6.47;;;;;;;7.34;100.00;101411.66;5110326;28;20061;-49
2022/05/03 00:18:21;;;;;;;10.55;7.80;;;;;;;7.36;100.00;101411.53;5105372;28;20032;-50
2022/05/03 00:20:48;;;;;;;10.15;7.00;;;;;;;7.36;100.00;101411.53;5103909;28;20468;-50
2022/05/03 00:23:14;;;;;;;11.60;7.10;;;;;;;7.36;100.00;101406.25;5108845;28;20032;-48
2022/05/03 00:25:41;;;;;;;11.52;6.80;;;;;;;7.36;100.00;101403.63;5114123;28;20482;-47
2022/05/03 00:28:08;;;;;;;8.00;6.30;;;;;;;7.36;100.00;101406.25;5097851;28;20519;-48
2022/05/03 00:30:35;;;;;;;14.85;8.00;;;;;;;7.35;100.00;101409.84;5085903;28;20032;-49
2022/05/03 00:33:02;;;;;;;8.82;6.00;;;;;;;7.35;100.00;101409.84;5117547;28;20392;-46
2022/05/03 00:35:28;;;;;;;8.85;6.57;;;;;;;7.39;100.00;101404.16;5099172;28;20016;-50
2022/05/03 00:37:53;;;;;;;10.10;7.38;;;;;;;7.43;100.00;101408.16;5106083;28;20027;-48
2022/05/03 00:40:21;;;;;;;8.63;6.07;;;;;;;7.46;100.00;101411.47;5107949;28;20397;-47
2022/05/03 00:42:56;;;;;;;7.20;5.00;;;;;;;7.50;100.00;101411.03;5103917;28;20046;-48
2022/05/03 00:45:30;;;;;;;9.82;7.07;;;;;;;7.50;100.00;101411.03;5110924;28;20027;-46
2022/05/03 00:48:13;;;;;;;9.07;4.93;;;;;;;7.51;100.00;101412.69;5107948;28;20085;-47
2022/05/03 00:50:52;;;;;;;9.15;6.13;;;;;;;7.53;100.00;101413.34;5114755;28;20032;-46
2022/05/03 00:53:31;;;;;;;8.57;6.15;;;;;;;7.57;100.00;101403.34;5089829;28;20035;-47
2022/05/03 00:56:47;;;;;;;6.22;4.63;;;;;;;7.62;100.00;101406.38;5099175;28;20519;-49
2022/05/03 00:59:44;;;;;;;6.97;5.85;;;;;;;7.67;100.00;101413.81;5099213;28;20087;-49
2022/05/03 01:02:13;;;;;;;8.32;5.90;;;;;;;7.70;100.00;101413.56;5111413;28;20031;-52
2022/05/03 01:05:06;;;;;;;7.85;4.70;;;;;;;7.74;100.00;101405.16;5094489;28;20032;-49
2022/05/03 01:07:55;;;;;;;7.55;5.22;;;;;;;7.79;100.00;101402.91;5100816;28;20475;-50
2022/05/03 01:10:39;;;;;;;10.15;6.50;;;;;;;7.85;100.00;101409.41;5107925;28;20043;-48
2022/05/03 01:13:23;;;;;;;5.95;4.80;;;;;;;7.91;100.00;101402.69;5108496;28;20035;-49
2022/05/03 01:16:11;;;;;;;12.02;5.82;;;;;;;7.92;100.00;101405.16;5103146;28;20031;-48
2022/05/03 01:18:51;;;;;;;5.82;4.13;;;;;;;7.95;100.00;101412.81;5102724;28;20093;-49
2022/05/03 01:21:57;;;;;;;11.07;5.90;;;;;;;7.98;100.00;101415.16;5100520;28;20103;-50
2022/05/03 01:24:38;;;;;;;7.25;4.72;;;;;;;8.00;100.00;101410.56;5070498;28;20176;-49
2022/05/03 01:27:22;;;;;;;5.65;4.35;;;;;;;8.02;100.00;101411.19;5112002;28;20169;-48
2022/05/03 01:29:49;;;;;;;5.75;4.93;;;;;;;8.07;100.00;101411.56;5102335;28;20392;-50
2022/05/03 01:32:19;;;;;;;4.97;3.72;;;;;;;8.11;100.00;101408.66;5102614;28;20383;-47
2022/05/03 01:34:46;;;;;;;10.18;4.88;;;;;;;8.18;100.00;101409.69;5110749;28;20396;-48
2022/05/03 01:37:46;;;;;;;5.68;4.75;;;;;;;8.24;100.00;101406.47;5104483;28;20059;-49
2022/05/03 01:40:19;;;;;;;7.82;4.93;;;;;;;8.38;100.00;101410.34;5102546;28;20028;-48
2022/05/03 01:43:06;;;;;;;9.13;6.00;;;;;;;8.51;100.00;101405.50;5109037;28;20032;-48
2022/05/03 01:45:37;;;;;;;10.40;6.65;;;;;;;8.57;100.00;101402.28;5115218;28;21310;-46
2022/05/03 01:50:18;;;;;;;10.93;6.00;;;;;;;8.62;100.00;101400.00;5095178;28;20270;-50
2022/05/03 01:51:25;;;;;;;7.80;5.00;;;;;;;8.64;100.00;101394.53;5104186;28;20277;-49
2022/05/03 01:54:07;;;;;;;7.43;5.35;;;;;;;8.65;100.00;101391.75;5096232;28;20031;-48
2022/05/03 01:56:53;;;;;;;5.40;4.50;;;;;;;8.65;100.00;101393.56;5107852;28;20030;-47
2022/05/03 01:59:35;;;;;;;8.98;5.10;;;;;;;8.70;100.00;101383.34;5111306;28;20126;-48
2022/05/03 02:02:11;;;;;;;8.18;5.78;;;;;;;8.74;100.00;101388.16;5102421;28;20036;-48
2022/05/03 02:05:01;;;;;;;8.05;5.72;;;;;;;8.73;100.00;101380.38;5106056;28;20027;-51
2022/05/03 02:07:45;;;;;;;12.68;6.22;;;;;;;8.71;100.00;101383.16;5099286;28;20034;-48
2022/05/03 02:10:20;;;;;;;8.23;5.45;;;;;;;8.72;100.00;101386.63;5086092;28;20032;-50
2022/05/03 02:13:00;;;;;;;10.45;5.85;;;;;;;8.66;100.00;101384.63;5105266;28;20031;-49
2022/05/03 02:15:44;;;;;;;11.07;7.00;;;;;;;8.67;100.00;101384.50;5105818;28;20046;-46
2022/05/03 02:18:16;;;;;;;13.50;8.45;;;;;;;8.67;100.00;101379.19;5092371;28;20054;-48
2022/05/03 02:21:15;;;;;;;13.32;7.20;;;;;;;8.68;100.00;101372.09;5100128;28;20130;-52
2022/05/03 02:24:01;;;;;;;11.40;6.88;;;;;;;8.68;100.00;101382.66;5090019;28;20298;-48
2022/05/03 02:26:43;;;;;;;16.50;8.40;;;;;;;8.68;100.00;101378.19;5102945;28;20053;-47
2022/05/03 02:29:19;;;;;;;13.00;8.18;;;;;;;8.69;100.00;101379.03;5107301;28;20384;-46
2022/05/03 02:32:03;;;;;;;12.80;8.18;;;;;;;8.70;100.00;101376.25;5099691;28;20027;-49
2022/05/03 02:34:48;;;;;;;12.00;6.72;;;;;;;8.69;100.00;101386.97;5106186;28;20407;-46
2022/05/03 02:37:24;;;;;;;17.63;10.68;;;;;;;8.68;100.00;101385.31;5108043;28;20422;-47
2022/05/03 02:40:11;;;;;;;16.65;9.40;;;;;;;8.72;100.00;101387.50;5116716;28;20419;-48
2022/05/03 02:42:37;;;;;;;16.55;9.52;;;;;;;8.70;100.00;101391.28;5115753;28;20027;-50
2022/05/03 02:45:04;;;;;;;12.95;9.18;;;;;;;8.70;100.00;101391.28;5098743;28;20035;-48
2022/05/03 02:47:33;;;;;;;25.13;11.65;;;;;;;8.70;100.00;101388.63;5108148;28;20027;-49
2022/05/03 02:50:17;;;;;;;19.33;10.73;;;;;;;8.75;100.00;101388.97;5109149;28;20115;-49
2022/05/03 02:52:56;;;;;;;18.35;9.27;;;;;;;8.73;100.00;101393.59;5101129;28;20530;-49
2022/05/03 02:55:21;;;;;;;16.38;11.15;;;;;;;8.72;100.00;101400.72;5104802;28;20038;-51
2022/05/03 02:57:58;;;;;;;15.73;10.57;;;;;;;8.71;100.00;101399.03;5090986;28;20336;-48
2022/05/03 03:03:21;;;;;;;20.15;11.25;;;;;;;8.68;100.00;101395.88;5097864;28;20042;-52
2022/05/03 03:05:59;;;;;;;18.80;10.90;;;;;;;8.68;100.00;101399.34;5102741;28;20060;-51
2022/05/03 03:08:28;;;;;;;14.80;10.02;;;;;;;8.66;100.00;101392.56;5110148;28;20034;-48
2022/05/03 03:11:05;;;;;;;18.27;9.98;;;;;;;8.65;100.00;101394.38;5104205;28;20031;-49
2022/05/03 03:13:39;;;;;;;18.65;11.25;;;;;;;8.63;100.00;101400.81;5110213;28;20094;-50
2022/05/03 03:16:09;;;;;;;17.58;11.05;;;;;;;8.63;100.00;101391.06;5122179;28;20039;-47
2022/05/03 03:18:37;;;;;;;26.40;11.83;;;;;;;8.63;100.00;101390.25;5121322;28;20031;-47
2022/05/03 03:21:07;;;;;;;23.05;13.00;;;;;;;8.64;100.00;101394.53;5097456;28;20576;-51
2022/05/03 03:23:35;;;;;;;19.03;12.00;;;;;;;8.60;100.00;101383.44;5106536;28;20480;-51
2022/05/03 03:26:01;;;;;;;20.58;12.02;;;;;;;8.60;100.00;101386.09;5097662;28;20284;-48
2022/05/03 03:28:28;;;;;;;15.55;9.85;;;;;;;8.65;100.00;101390.91;5106927;28;20028;-48
2022/05/03 03:30:55;;;;;;;16.92;9.70;;;;;;;8.65;100.00;101390.91;5104419;28;20101;-48
2022/05/03 03:33:21;;;;;;;17.27;10.48;;;;;;;8.62;100.00;101383.28;5083369;28;20062;-47
2022/05/03 03:35:49;;;;;;;19.40;10.18;;;;;;;8.60;100.00;101383.44;5102518;28;20389;-51
2022/05/03 03:38:16;;;;;;;17.55;11.40;;;;;;;8.64;100.00;101386.59;5108306;28;20093;-48
2022/05/03 03:40:48;;;;;;;15.27;9.75;;;;;;;8.63;100.00;101391.06;5101745;28;20434;-47
2022/05/03 03:43:15;;;;;;;19.40;11.95;;;;;;;8.65;100.00;101383.00;5119065;28;21372;-48
2022/05/03 03:45:41;;;;;;;18.80;9.68;;;;;;;8.67;100.00;101391.56;5109312;28;20464;-47
2022/05/03 03:48:08;;;;;;;17.48;11.60;;;;;;;8.68;100.00;101387.97;5109656;28;20040;-47
2022/05/03 03:50:34;;;;;;;23.40;11.27;;;;;;;8.70;100.00;101391.28;5106052;28;20567;-46
2022/05/03 03:53:00;;;;;;;16.75;9.98;;;;;;;8.71;100.00;101393.75;5105817;28;20094;-47
2022/05/03 03:55:26;;;;;;;21.48;11.82;;;;;;;8.72;100.00;101394.56;5097555;28;20085;-48
2022/05/03 03:57:52;;;;;;;23.10;11.82;;;;;;;8.74;100.00;101387.31;5099768;28;20089;-49
2022/05/03 04:00:18;;;;;;;20.65;12.38;;;;;;;8.74;100.00;101387.31;5099804;28;20468;-46
2022/05/03 04:02:45;;;;;;;27.17;12.50;;;;;;;8.73;100.00;101383.84;5108243;28;20039;-53
2022/05/03 04:05:15;;;;;;;25.48;12.48;;;;;;;8.75;100.00;101378.38;5109746;28;20074;-46
2022/05/03 04:07:40;;;;;;;20.65;12.77;;;;;;;8.73;100.00;101378.56;5102272;28;20104;-50
2022/05/03 04:10:06;;;;;;;19.92;10.80;;;;;;;8.73;100.00;101375.91;5108254;28;20032;-51
2022/05/03 04:12:32;;;;;;;20.08;10.88;;;;;;;8.72;100.00;101376.06;5109784;28;20044;-50
2022/05/03 04:14:57;;;;;;;22.13;10.85;;;;;;;8.73;100.00;101380.38;5101348;28;20443;-47
2022/05/03 04:17:22;;;;;;;18.60;9.45;;;;;;;8.73;100.00;101383.84;5093486;28;20161;-49
2022/05/03 04:19:48;;;;;;;19.30;10.23;;;;;;;8.75;100.00;101381.03;5099780;28;20345;-51
2022/05/03 04:22:25;;;;;;;18.83;11.27;;;;;;;8.76;100.00;101385.34;5105095;28;20054;-46
2022/05/03 04:24:52;;;;;;;23.83;10.55;;;;;;;8.81;100.00;101380.44;5095374;28;20397;-51
2022/05/03 04:27:17;;;;;;;22.20;11.85;;;;;;;8.82;100.00;101382.06;5094864;28;20374;-47
2022/05/03 04:29:43;;;;;;;19.95;9.57;;;;;;;8.81;100.00;101380.44;5102062;28;20544;-48
2022/05/03 04:32:08;;;;;;;20.70;10.20;;;;;;;8.81;100.00;101385.72;5096662;28;20028;-47
2022/05/03 04:34:33;;;;;;;22.85;11.40;;;;;;;8.81;100.00;101391.00;5101787;28;20016;-48
2022/05/03 04:36:59;;;;;;;16.13;9.23;;;;;;;8.80;100.00;101388.50;5102303;28;20062;-49
2022/05/03 04:39:24;;;;;;;18.45;10.18;;;;;;;8.76;100.00;101385.34;5104834;28;20399;-46
2022/05/03 04:41:50;;;;;;;19.35;11.23;;;;;;;8.75;100.00;101394.25;5109375;28;20495;-46
2022/05/03 04:44:15;;;;;;;18.17;8.73;;;;;;;8.77;100.00;101388.81;5117537;28;20154;-47
2022/05/03 04:46:40;;;;;;;16.23;9.93;;;;;;;8.78;100.00;101398.41;5110375;28;20036;-50
2022/05/03 04:49:05;;;;;;;23.35;11.15;;;;;;;8.79;100.00;101398.25;5100893;28;20024;-49
2022/05/03 04:51:33;;;;;;;19.63;11.38;;;;;;;8.80;100.00;101402.53;5104127;28;20023;-53
2022/05/03 04:53:58;;;;;;;20.23;12.30;;;;;;;8.82;100.00;101412.97;5108563;28;20344;-46
2022/05/03 04:56:24;;;;;;;18.77;9.88;;;;;;;8.85;100.00;101402.09;5106846;28;20027;-47
2022/05/03 04:58:51;;;;;;;20.88;9.43;;;;;;;8.85;100.00;101410.84;5105945;28;20095;-51
2022/05/03 05:01:18;;;;;;;17.02;9.98;;;;;;;8.86;100.00;101412.53;5095905;28;20032;-50
2022/05/03 05:03:44;;;;;;;16.50;9.02;;;;;;;8.86;100.00;101417.81;5107906;28;20046;-50
2022/05/03 05:06:10;;;;;;;13.82;9.07;;;;;;;8.86;100.00;101415.16;5105636;28;20074;-48
2022/05/03 05:08:40;;;;;;;19.33;9.27;;;;;;;8.84;100.00;101414.47;5114173;28;20081;-46
2022/05/03 05:11:06;;;;;;;17.80;10.77;;;;;;;8.84;100.00;101418.94;5104644;28;20048;-48
2022/05/03 05:13:32;;;;;;;14.20;8.07;;;;;;;8.82;100.00;101416.44;5107213;28;20197;-48
2022/05/03 05:15:57;;;;;;;14.60;8.90;;;;;;;8.82;100.00;101416.44;5111831;28;20374;-50
2022/05/03 05:18:24;;;;;;;17.27;9.13;;;;;;;8.84;100.00;101421.59;5107791;28;20035;-46
2022/05/03 05:20:50;;;;;;;10.15;7.75;;;;;;;8.83;100.00;101417.28;5109457;28;20472;-46
2022/05/03 05:23:15;;;;;;;11.30;7.65;;;;;;;8.84;100.00;101419.78;5100940;28;20080;-46
2022/05/03 05:25:40;;;;;;;18.35;9.70;;;;;;;8.86;100.00;101422.28;5098390;28;20496;-46
2022/05/03 05:28:06;;;;;;;13.38;8.35;;;;;;;8.88;100.00;101423.78;5099096;28;20558;-48
2022/05/03 05:30:31;;;;;;;15.88;8.95;;;;;;;8.88;100.00;101434.34;5105602;28;20034;-46
2022/05/03 05:32:57;;;;;;;12.40;8.13;;;;;;;8.88;100.00;101434.34;5095042;28;20106;-47
2022/05/03 05:35:22;;;;;;;12.30;8.68;;;;;;;8.89;100.00;101435.19;5096613;28;20040;-49
2022/05/03 05:37:47;;;;;;;14.57;8.55;;;;;;;8.91;100.00;101446.44;5093407;28;20058;-48
2022/05/03 05:40:13;;;;;;;15.30;8.93;;;;;;;8.90;100.00;101442.94;5094012;28;20027;-47
2022/05/03 05:42:38;;;;;;;15.25;8.90;;;;;;;8.92;100.00;101448.91;5078173;28;20046;-48
2022/05/03 05:45:04;;;;;;;14.18;7.72;;;;;;;8.94;100.00;101449.59;5092797;28;20032;-48
2022/05/03 05:47:30;;;;;;;15.75;9.02;;;;;;;8.95;100.00;101439.81;5092270;28;20039;-51
2022/05/03 05:49:55;;;;;;;12.15;7.97;;;;;;;8.98;100.00;101441.34;5074847;28;20407;-47
2022/05/03 05:55:05;;;;;;;17.20;9.18;;;;;;;9.02;100.00;101440.03;5104588;28;20030;-49
2022/05/03 05:57:31;;;;;;;12.52;9.55;;;;;;;9.03;100.00;101449.63;5105221;28;20033;-48
2022/05/03 05:59:56;;;;;;;14.55;8.52;;;;;;;9.03;100.00;101454.91;5096186;28;20492;-47
2022/05/03 06:02:22;;;;;;;15.90;8.55;;;;;;;9.02;100.00;101445.34;5101134;28;20051;-46
2022/05/03 06:04:47;;;;;;;17.67;10.75;;;;;;;9.00;100.00;101461.34;5095711;28;20055;-49
2022/05/03 06:07:12;;;;;;;12.45;7.72;;;;;;;9.00;100.00;101457.88;5092624;28;20088;-47
2022/05/03 06:09:37;;;;;;;19.08;9.80;;;;;;;9.01;100.00;101462.19;5090606;28;20046;-45
2022/05/03 06:12:03;;;;;;;13.30;8.60;;;;;;;9.03;100.00;101468.16;5095455;28;20027;-46
2022/05/03 06:14:30;;;;;;;13.77;8.38;;;;;;;9.05;100.00;101464.34;5095524;28;20032;-46
2022/05/03 06:16:57;;;;;;;12.00;8.18;;;;;;;9.05;100.00;101467.00;5094922;28;20028;-47
2022/05/03 06:19:23;;;;;;;18.52;8.98;;;;;;;9.07;100.00;101467.69;5093679;28;20097;-47
2022/05/03 06:21:49;;;;;;;17.20;9.13;;;;;;;9.10;100.00;101463.88;5094844;28;20278;-46
2022/05/03 06:24:15;;;;;;;10.30;7.57;;;;;;;9.11;100.00;101458.47;5092687;28;20675;-46
2022/05/03 06:26:40;;;;;;;21.48;12.48;;;;;;;9.09;100.00;101460.44;5095322;28;20040;-49
2022/05/03 06:29:08;;;;;;;19.38;12.38;;;;;;;9.06;100.00;101460.75;5090121;28;20031;-47
2022/05/03 06:31:43;;;;;;;22.23;11.20;;;;;;;9.03;100.00;101468.16;5101977;28;20554;-47
2022/05/03 06:34:10;;;;;;;24.30;12.65;;;;;;;9.01;100.00;101472.75;5074020;28;20073;-48
2022/05/03 06:36:36;;;;;;;23.10;12.82;;;;;;;9.01;100.00;101470.09;5090343;28;20493;-46
2022/05/03 06:39:03;;;;;;;21.42;10.85;;;;;;;9.02;100.00;101480.53;5082169;28;20174;-48
2022/05/03 06:41:28;;;;;;;22.20;10.93;;;;;;;9.02;100.00;101472.63;5086678;28;20392;-47
2022/05/03 06:43:56;;;;;;;22.50;12.32;;;;;;;9.00;100.00;101471.09;5086388;28;20031;-49
2022/05/03 06:46:22;;;;;;;18.40;11.50;;;;;;;8.99;100.00;101475.56;5088828;28;20024;-50
2022/05/03 06:48:47;;;;;;;23.20;12.82;;;;;;;9.00;100.00;101471.94;5090024;28;20511;-47
2022/05/03 06:51:13;;;;;;;23.33;12.02;;;;;;;9.03;100.00;101468.16;5095617;28;20024;-49
2022/05/03 06:53:38;;;;;;;20.40;11.65;;;;;;;9.04;100.00;101475.94;5089236;28;20612;-49
2022/05/03 06:56:04;;;;;;;25.08;12.38;;;;;;;9.05;100.00;101474.13;5087761;28;20031;-47
2022/05/03 06:58:29;;;;;;;17.20;10.38;;;;;;;9.05;100.00;101487.34;5091674;28;20036;-50
2022/05/03 07:00:54;;;;;;;18.20;11.30;;;;;;;9.10;100.00;101485.88;5092379;28;20077;-52
2022/05/03 07:03:20;;;;;;;24.80;11.05;;;;;;;9.10;100.00;101472.66;5089522;28;20031;-46
2022/05/03 07:05:45;;;;;;;16.35;9.70;;;;;;;9.14;100.00;101481.13;5098043;28;20212;-46
2022/05/03 07:08:11;;;;;;;23.15;12.23;;;;;;;9.16;100.00;101476.47;5085023;28;20023;-50
2022/05/03 07:10:37;;;;;;;18.55;10.02;;;;;;;9.20;100.00;101484.94;5089471;28;20506;-47
2022/05/03 07:13:04;;;;;;;22.20;11.60;;;;;;;9.21;100.00;101487.44;5090356;28;20066;-51
2022/05/03 07:15:30;;;;;;;14.98;9.15;;;;;;;9.20;100.00;101483.13;5097951;28;20036;-50
2022/05/03 07:23:27;;;;;;;18.63;8.77;;;;;;;9.31;100.00;101480.19;5103022;28;20511;-46
2022/05/03 07:25:53;;;;;;;13.20;9.32;;;;;;;9.33;100.00;101486.16;5097387;28;20082;-45
2022/05/03 07:28:19;;;;;;;11.25;7.70;;;;;;;9.34;100.00;101487.00;5100533;28;20314;-49
2022/05/03 07:30:44;;;;;;;18.48;9.85;;;;;;;9.37;100.00;101489.31;5104350;28;20028;-50
2022/05/03 07:33:10;;;;;;;16.63;7.28;;;;;;;9.35;100.00;101486.03;5099227;28;20076;-49
2022/05/03 07:35:35;;;;;;;14.90;8.05;;;;;;;9.39;100.00;101487.34;5094448;28;20780;-50
2022/05/03 07:38:00;;;;;;;11.27;6.93;;;;;;;9.47;100.00;101486.56;5091762;28;20032;-52
2022/05/03 07:40:28;;;;;;;13.27;6.90;;;;;;;9.53;100.00;101488.59;5094420;28;20032;-49
2022/05/03 07:42:53;;;;;;;12.73;6.68;;;;;;;9.58;100.00;101488.94;5097815;28;20028;-52
2022/05/03 07:45:19;;;;;;;12.55;6.03;;;;;;;9.62;100.00;101487.59;5094283;28;20035;-49
2022/05/03 07:47:44;;;;;;;12.48;6.45;;;;;;;9.65;100.00;101486.47;5097947;28;20031;-51
2022/05/03 07:50:10;;;;;;;8.00;5.68;;;;;;;9.69;100.00;101488.63;5091871;28;20144;-48
2022/05/03 07:52:36;;;;;;;10.27;6.30;;;;;;;9.72;100.00;101492.78;5084122;28;20438;-45
2022/05/03 07:55:02;;;;;;;7.43;5.35;;;;;;;9.71;100.00;101494.59;5097525;28;20447;-46
2022/05/03 07:57:27;;;;;;;8.68;5.30;;;;;;;9.68;100.00;101492.28;5097023;28;20088;-53
2022/05/03 07:59:54;;;;;;;7.38;5.18;;;;;;;9.67;100.00;101493.25;5097549;28;20032;-47
2022/05/03 08:02:21;;;;;;;7.65;5.45;;;;;;;9.70;100.00;101490.28;5098648;28;20028;-47
2022/05/03 08:04:48;;;;;;;11.32;5.20;;;;;;;9.74;100.00;101488.16;5097899;28;20476;-48
2022/05/03 08:07:13;;;;;;;8.02;6.50;;;;;;;9.75;100.00;101487.97;5096000;28;20107;-48
2022/05/03 08:09:39;;;;;;;11.48;5.55;;;;;;;9.82;100.00;101486.34;5096491;28;20127;-51
2022/05/03 08:12:05;;;;;;;8.95;6.78;;;;;;;9.87;100.00;101490.34;5098828;28;20031;-52
2022/05/03 08:14:30;;;;;;;5.68;4.18;;;;;;;9.87;100.00;101485.88;5095998;28;20035;-51
2022/05/03 08:16:56;;;;;;;6.35;4.93;;;;;;;9.91;100.00;101494.31;5095592;28;20057;-47
2022/05/03 08:19:24;;;;;;;7.72;4.47;;;;;;;9.93;100.00;101492.34;5100229;28;20031;-48
2022/05/03 08:21:52;;;;;;;8.55;4.78;;;;;;;9.89;100.00;101491.03;5094404;28;20028;-46
2022/05/03 08:24:19;;;;;;;6.45;4.65;;;;;;;9.95;100.00;101493.00;5096166;28;20024;-50
2022/05/03 08:26:44;;;;;;;13.65;6.45;;;;;;;9.98;100.00;101495.34;5094960;28;20032;-49
2022/05/03 08:29:10;;;;;;;7.00;4.93;;;;;;;10.02;100.00;101488.72;5101454;28;20667;-47
2022/05/03 08:31:35;;;;;;;8.32;4.88;;;;;;;10.07;100.00;101497.03;5104889;28;20088;-46
2022/05/03 08:34:02;;;;;;;8.10;4.85;;;;;;;10.12;100.00;101492.06;5094812;28;20039;-51
2022/05/03 08:36:29;;;;;;;5.93;3.88;;;;;;;10.14;100.00;101500.66;5103126;28;20047;-47
2022/05/03 08:42:21;;;;;;;12.88;6.07;;;;;;;10.13;100.00;101495.53;5097283;28;20066;-52
2022/05/03 08:44:28;;;;;;;8.27;4.15;;;;;;;10.12;100.00;101494.72;5089596;28;20458;-48
2022/05/03 08:46:56;;;;;;;7.78;5.00;;;;;;;10.14;100.00;101498.00;5097381;28;20259;-47
2022/05/03 08:49:23;;;;;;;10.15;5.22;;;;;;;10.22;100.00;101500.69;5097285;28;20043;-46
2022/05/03 08:51:51;;;;;;;8.00;4.80;;;;;;;10.34;100.00;101497.75;5108357;28;20028;-49
2022/05/03 08:54:17;;;;;;;11.43;5.55;;;;;;;10.40;100.00;101492.63;5097540;28;20089;-52
2022/05/03 08:56:42;;;;;;;9.25;6.10;;;;;;;10.44;100.00;101493.09;5101280;28;20036;-49
2022/05/03 08:59:08;;;;;;;8.48;5.05;;;;;;;10.49;100.00;101493.44;5108884;28;20034;-47
2022/05/03 09:01:34;;;;;;;7.70;5.20;;;;;;;10.47;100.00;101498.91;5096417;28;20031;-50
2022/05/03 09:04:00;;;;;;;8.07;5.80;;;;;;;10.53;100.00;101508.00;5096972;28;20559;-47
2022/05/03 09:06:46;;;;;;;8.43;4.95;;;;;;;10.59;100.00;101503.91;5094890;28;20024;-47
2022/05/03 09:09:13;;;;;;;11.68;5.97;;;;;;;10.67;100.00;101507.34;5095293;28;20124;-47
2022/05/03 09:12:20;;;;;;;12.60;6.85;;;;;;;10.69;100.00;101508.03;5100973;28;20050;-51
2022/05/03 09:14:46;;;;;;;10.45;5.60;;;;;;;10.73;100.00;101508.50;5093120;28;20093;-52
2022/05/03 09:17:11;;;;;;;9.23;5.70;;;;;;;10.65;100.00;101511.16;5102953;28;20550;-51
2022/05/03 09:19:37;;;;;;;11.73;6.20;;;;;;;10.53;100.00;101507.19;5105128;28;20028;-53
2022/05/03 09:24:55;;;;;;;10.50;6.88;;;;;;;10.50;100.00;101513.66;5104720;28;20132;-51
2022/05/03 09:27:22;;;;;;;14.05;7.30;;;;;;;10.61;100.00;101505.38;5105575;28;20027;-53
2022/05/03 09:30:07;;;;;;;8.52;5.78;;;;;;;10.79;100.00;101504.34;5090373;28;20111;-49
2022/05/03 09:32:37;;;;;;;14.52;6.45;;;;;;;10.82;100.00;101506.69;5104649;28;20036;-50
2022/05/03 09:35:03;;;;;;;12.43;7.60;;;;;;;10.92;100.00;101491.44;5104296;28;20032;-52
2022/05/03 09:37:41;;;;;;;11.85;7.20;;;;;;;11.08;100.00;101488.72;5109054;28;20032;-48
2022/05/03 09:40:08;;;;;;;11.20;6.57;;;;;;;11.19;100.00;101489.38;5106401;28;20027;-48
2022/05/03 09:42:35;;;;;;;8.88;7.07;;;;;;;11.25;100.00;101494.00;5102090;28;20035;-47
2022/05/03 09:45:03;;;;;;;12.15;5.30;;;;;;;11.40;100.00;101494.13;5095715;28;20043;-50
2022/05/03 09:47:31;;;;;;;13.02;7.18;;;;;;;11.39;100.00;101487.97;5102750;28;20529;-50
2022/05/03 09:49:56;;;;;;;9.38;6.20;;;;;;;11.39;100.00;101495.94;5097442;28;20111;-50
2022/05/03 09:52:35;;;;;;;7.85;5.80;;;;;;;11.30;100.00;101487.16;5099007;28;20461;-51
2022/05/03 09:55:08;;;;;;;8.73;6.40;;;;;;;11.27;100.00;101486.69;5105322;28;20098;-51
2022/05/03 09:57:36;;;;;;;9.55;6.75;;;;;;;11.33;100.00;101488.66;5104348;28;20123;-50
2022/05/03 10:00:05;;;;;;;11.30;7.10;;;;;;;11.23;100.00;101483.56;5099882;28;20116;-52
2022/05/03 10:02:32;;;;;;;10.45;6.03;;;;;;;11.25;100.00;101481.53;5096686;28;20101;-52
2022/05/03 10:04:58;;;;;;;7.68;6.45;;;;;;;11.38;100.00;101481.00;5103161;28;20036;-53
2022/05/03 10:07:25;;;;;;;8.38;6.38;;;;;;;11.53;100.00;101486.41;5106640;28;20586;-51
2022/05/03 10:09:51;;;;;;;10.20;6.13;;;;;;;11.67;100.00;101476.88;5101863;28;20109;-48
2022/05/03 10:12:17;;;;;;;9.02;6.68;;;;;;;11.78;100.00;101480.00;5107394;28;20480;-49
2022/05/03 10:14:45;;;;;;;10.40;6.18;;;;;;;11.82;100.00;101485.78;5105571;28;20078;-49
2022/05/03 10:20:40;;;;;;;8.07;4.85;;;;;;;11.89;100.00;101480.63;5103464;28;20153;-52
2022/05/03 10:23:25;;;;;;;8.77;6.72;;;;;;;11.81;100.00;101473.50;5105472;28;20055;-50
2022/05/03 10:25:59;;;;;;;10.90;7.00;;;;;;;11.74;100.00;101473.34;5113142;28;20496;-48
2022/05/03 10:28:25;;;;;;;7.38;6.47;;;;;;;11.90;100.00;101479.63;5110499;28;20059;-50
2022/05/03 10:31:08;;;;;;;7.53;4.88;;;;;;;11.95;100.00;101483.44;5114424;28;20042;-50
2022/05/03 10:33:35;;;;;;;9.55;6.55;;;;;;;12.01;100.00;101479.22;5102125;28;20034;-49
2022/05/03 10:36:02;;;;;;;11.20;5.03;;;;;;;12.00;100.00;101472.25;5111165;28;20035;-47
2022/05/03 10:38:48;;;;;;;6.88;4.93;;;;;;;11.95;100.00;101472.78;5110232;28;20419;-51
2022/05/03 10:41:23;;;;;;;8.27;5.28;;;;;;;11.90;100.00;101472.50;5099450;28;20381;-51
2022/05/03 10:43:49;;;;;;;5.55;3.92;;;;;;;11.91;100.00;101471.47;5106506;28;20028;-51
2022/05/03 10:46:22;;;;;;;5.40;4.75;;;;;;;12.04;100.00;101468.25;5111959;28;20032;-50
2022/05/03 10:49:11;;;;;;;5.18;4.68;;;;;;;12.24;100.00;101460.63;5110435;28;20023;-48
2022/05/03 10:51:37;;;;;;;8.80;5.88;;;;;;;12.54;100.00;101455.38;5111551;28;20484;-49
2022/05/03 10:54:04;;;;;;;8.25;5.07;;;;;;;12.61;100.00;101449.16;5108884;28;20031;-51
2022/05/03 10:56:30;;;;;;;5.40;3.80;;;;;;;12.56;100.00;101453.38;5105232;28;20194;-53
2022/05/03 10:59:14;;;;;;;5.43;4.82;;;;;;;12.57;100.00;101444.38;5103297;28;20034;-46
2022/05/03 11:01:55;;;;;;;5.32;4.32;;;;;;;12.66;100.00;101454.78;5103042;28;20059;-49
2022/05/03 11:04:21;;;;;;;7.40;5.93;;;;;;;12.80;100.00;101439.00;5091495;28;20500;-50
2022/05/03 11:06:50;;;;;;;7.25;3.97;;;;;;;13.06;100.00;101439.41;5112055;28;20042;-51
2022/05/03 11:09:29;;;;;;;5.07;4.47;;;;;;;13.47;100.00;101440.75;5108051;28;20526;-52
2022/05/03 11:11:57;;;;;;;5.40;3.85;;;;;;;13.81;100.00;101428.63;5114399;28;20027;-49
2022/05/03 11:14:24;;;;;;;8.85;5.55;;;;;;;13.82;100.00;101427.63;5115100;28;20497;-47
2022/05/03 11:17:01;;;;;;;4.97;4.00;;;;;;;13.85;100.00;101436.06;5099023;28;20054;-52
2022/05/03 11:19:26;;;;;;;3.70;3.38;;;;;;;13.98;100.00;101424.69;5105579;28;20028;-48
2022/05/03 11:21:52;;;;;;;4.45;3.90;;;;;;;14.17;100.00;101424.06;5111767;28;20026;-46
2022/05/03 11:24:25;;;;;;;5.70;4.82;;;;;;;14.20;100.00;101417.53;5087642;28;20035;-51
2022/05/03 11:26:54;;;;;;;5.97;4.35;;;;;;;14.02;100.00;101423.31;5111662;28;20039;-48
2022/05/03 11:29:20;;;;;;;6.30;4.53;;;;;;;13.94;100.00;101410.94;5109746;28;20028;-49
2022/05/03 11:31:47;;;;;;;7.75;4.97;;;;;;;13.75;100.00;101412.38;5103025;28;20503;-51
2022/05/03 11:34:13;;;;;;;8.48;4.15;;;;;;;13.75;100.00;101415.03;5108403;28;20043;-53
2022/05/03 11:36:42;;;;;;;9.10;4.97;;;;;;;14.04;100.00;101410.59;5108078;28;20028;-54
2022/05/03 11:39:09;;;;;;;9.80;5.15;;;;;;;14.44;100.00;101404.78;5087939;28;20149;-47
2022/05/03 11:41:36;;;;;;;6.10;4.93;;;;;;;14.77;100.00;101405.88;5108069;28;20031;-49
2022/05/03 11:44:02;;;;;;;4.20;3.80;;;;;;;14.64;100.00;101399.59;5107338;28;20123;-48
2022/05/03 11:46:27;;;;;;;5.25;4.65;;;;;;;14.54;100.00;101395.44;5107648;28;20162;-50
2022/05/03 11:49:02;;;;;;;4.63;4.15;;;;;;;14.47;100.00;101410.56;5104926;28;20092;-53
2022/05/03 11:57:10;;;;;;;6.32;4.70;;;;;;;14.64;100.00;101391.59;5109802;28;20046;-48